sensor_id;sensor_type;location;lat;lon;timestamp;P1;durP1;ratioP1;P2;durP2;ratioP2
6037;SDS011;3047;42.600;23.470;2022-12-08T00:01:11;0.67;;;0.67;;
6037;SDS011;3047;42.600;23.470;2022-12-08T00:03:39;1.13;;;1.13;;
6037;SDS011;3047;42.600;23.470;2022-12-08T00:06:07;1.10;;;1.10;;
6037;SDS011;3047;42.600;23.470;2022-12-08T00:09:00;0.70;;;0.70;;
6037;SDS011;3047;42.600;23.470;2022-12-08T00:11:44;3.70;;;0.97;;
6037;SDS011;3047;42.600;23.470;2022-12-08T00:14:11;6.90;;;0.93;;
6037;SDS011;3047;42.600;23.470;2022-12-08T00:16:39;1.10;;;1.00;;
6037;SDS011;3047;42.600;23.470;2022-12-08T00:19:06;1.53;;;1.43;;
6037;SDS011;3047;42.600;23.470;2022-12-08T00:21:33;0.90;;;0.90;;
6037;SDS011;3047;42.600;23.470;2022-12-08T00:24:00;0.97;;;0.97;;
6037;SDS011;3047;42.600;23.470;2022-12-08T00:26:26;1.13;;;1.13;;
6037;SDS011;3047;42.600;23.470;2022-12-08T00:28:53;1.23;;;1.23;;
6037;SDS011;3047;42.600;23.470;2022-12-08T00:31:20;0.67;;;0.67;;
6037;SDS011;3047;42.600;23.470;2022-12-08T00:33:48;3.50;;;1.30;;
6037;SDS011;3047;42.600;23.470;2022-12-08T00:36:15;0.83;;;0.83;;
6037;SDS011;3047;42.600;23.470;2022-12-08T00:38:42;1.63;;;1.53;;
6037;SDS011;3047;42.600;23.470;2022-12-08T00:41:11;0.93;;;0.93;;
6037;SDS011;3047;42.600;23.470;2022-12-08T00:43:39;10.50;;;1.33;;
6037;SDS011;3047;42.600;23.470;2022-12-08T00:46:07;1.37;;;1.27;;
6037;SDS011;3047;42.600;23.470;2022-12-08T00:48:33;0.57;;;0.57;;
6037;SDS011;3047;42.600;23.470;2022-12-08T00:51:02;2.07;;;1.70;;
6037;SDS011;3047;42.600;23.470;2022-12-08T00:53:29;0.80;;;0.80;;
6037;SDS011;3047;42.600;23.470;2022-12-08T00:55:56;2.30;;;1.40;;
6037;SDS011;3047;42.600;23.470;2022-12-08T00:58:22;0.80;;;0.80;;
6037;SDS011;3047;42.600;23.470;2022-12-08T01:00:49;0.47;;;0.47;;
6037;SDS011;3047;42.600;23.470;2022-12-08T01:03:16;1.40;;;1.00;;
6037;SDS011;3047;42.600;23.470;2022-12-08T01:05:43;0.73;;;0.73;;
6037;SDS011;3047;42.600;23.470;2022-12-08T01:08:11;1.43;;;1.33;;
6037;SDS011;3047;42.600;23.470;2022-12-08T01:10:37;0.80;;;0.80;;
6037;SDS011;3047;42.600;23.470;2022-12-08T01:13:04;1.40;;;1.40;;
6037;SDS011;3047;42.600;23.470;2022-12-08T01:15:31;1.50;;;1.50;;
6037;SDS011;3047;42.600;23.470;2022-12-08T01:17:58;1.23;;;1.23;;
6037;SDS011;3047;42.600;23.470;2022-12-08T01:20:25;1.30;;;1.30;;
6037;SDS011;3047;42.600;23.470;2022-12-08T01:22:51;0.50;;;0.50;;
6037;SDS011;3047;42.600;23.470;2022-12-08T01:25:20;1.33;;;1.23;;
6037;SDS011;3047;42.600;23.470;2022-12-08T01:27:46;0.70;;;0.70;;
6037;SDS011;3047;42.600;23.470;2022-12-08T01:30:13;2.83;;;1.87;;
6037;SDS011;3047;42.600;23.470;2022-12-08T01:32:40;0.87;;;0.87;;
6037;SDS011;3047;42.600;23.470;2022-12-08T01:35:07;0.80;;;0.80;;
6037;SDS011;3047;42.600;23.470;2022-12-08T01:37:34;0.97;;;0.97;;
6037;SDS011;3047;42.600;23.470;2022-12-08T01:40:01;0.93;;;0.93;;
6037;SDS011;3047;42.600;23.470;2022-12-08T01:42:29;4.60;;;1.60;;
6037;SDS011;3047;42.600;23.470;2022-12-08T01:44:59;0.57;;;0.57;;
6037;SDS011;3047;42.600;23.470;2022-12-08T01:47:29;0.67;;;0.67;;
6037;SDS011;3047;42.600;23.470;2022-12-08T01:50:01;0.80;;;0.80;;
6037;SDS011;3047;42.600;23.470;2022-12-08T01:52:31;0.90;;;0.90;;
6037;SDS011;3047;42.600;23.470;2022-12-08T01:55:02;0.60;;;0.60;;
6037;SDS011;3047;42.600;23.470;2022-12-08T01:57:35;0.50;;;0.50;;
6037;SDS011;3047;42.600;23.470;2022-12-08T02:00:07;0.80;;;0.80;;
6037;SDS011;3047;42.600;23.470;2022-12-08T02:02:37;0.80;;;0.80;;
6037;SDS011;3047;42.600;23.470;2022-12-08T02:05:12;0.90;;;0.90;;
6037;SDS011;3047;42.600;23.470;2022-12-08T02:07:39;0.80;;;0.80;;
6037;SDS011;3047;42.600;23.470;2022-12-08T02:10:06;0.73;;;0.73;;
6037;SDS011;3047;42.600;23.470;2022-12-08T02:12:35;1.53;;;1.43;;
6037;SDS011;3047;42.600;23.470;2022-12-08T02:15:02;0.50;;;0.50;;
6037;SDS011;3047;42.600;23.470;2022-12-08T02:17:33;1.00;;;1.00;;
6037;SDS011;3047;42.600;23.470;2022-12-08T02:20:22;1.00;;;1.00;;
6037;SDS011;3047;42.600;23.470;2022-12-08T02:23:00;1.27;;;1.27;;
6037;SDS011;3047;42.600;23.470;2022-12-08T02:25:39;1.90;;;1.57;;
6037;SDS011;3047;42.600;23.470;2022-12-08T02:28:23;3.17;;;1.03;;
6037;SDS011;3047;42.600;23.470;2022-12-08T02:31:06;0.90;;;0.90;;
6037;SDS011;3047;42.600;23.470;2022-12-08T02:33:50;2.33;;;2.13;;
6037;SDS011;3047;42.600;23.470;2022-12-08T02:36:31;0.77;;;0.77;;
6037;SDS011;3047;42.600;23.470;2022-12-08T02:39:07;1.30;;;1.30;;
6037;SDS011;3047;42.600;23.470;2022-12-08T02:41:44;1.53;;;1.50;;
6037;SDS011;3047;42.600;23.470;2022-12-08T02:44:16;0.90;;;0.90;;
6037;SDS011;3047;42.600;23.470;2022-12-08T02:46:51;2.23;;;1.13;;
6037;SDS011;3047;42.600;23.470;2022-12-08T02:49:22;3.23;;;0.87;;
6037;SDS011;3047;42.600;23.470;2022-12-08T02:52:02;1.23;;;1.23;;
6037;SDS011;3047;42.600;23.470;2022-12-08T02:54:30;1.33;;;1.23;;
6037;SDS011;3047;42.600;23.470;2022-12-08T02:57:00;1.50;;;1.07;;
6037;SDS011;3047;42.600;23.470;2022-12-08T02:59:46;1.33;;;1.33;;
6037;SDS011;3047;42.600;23.470;2022-12-08T03:02:25;1.37;;;1.27;;
6037;SDS011;3047;42.600;23.470;2022-12-08T03:05:03;1.17;;;1.07;;
6037;SDS011;3047;42.600;23.470;2022-12-08T03:07:37;1.33;;;1.33;;
6037;SDS011;3047;42.600;23.470;2022-12-08T03:10:11;0.60;;;0.60;;
6037;SDS011;3047;42.600;23.470;2022-12-08T03:12:45;1.43;;;1.33;;
6037;SDS011;3047;42.600;23.470;2022-12-08T03:15:17;1.20;;;1.20;;
6037;SDS011;3047;42.600;23.470;2022-12-08T03:17:46;0.70;;;0.70;;
6037;SDS011;3047;42.600;23.470;2022-12-08T03:20:18;0.70;;;0.70;;
6037;SDS011;3047;42.600;23.470;2022-12-08T03:22:48;0.53;;;0.53;;
6037;SDS011;3047;42.600;23.470;2022-12-08T03:25:18;0.77;;;0.77;;
6037;SDS011;3047;42.600;23.470;2022-12-08T03:27:48;0.63;;;0.63;;
6037;SDS011;3047;42.600;23.470;2022-12-08T03:30:16;0.50;;;0.50;;
6037;SDS011;3047;42.600;23.470;2022-12-08T03:32:46;0.43;;;0.43;;
6037;SDS011;3047;42.600;23.470;2022-12-08T03:35:22;2.70;;;1.30;;
6037;SDS011;3047;42.600;23.470;2022-12-08T03:37:59;0.70;;;0.70;;
6037;SDS011;3047;42.600;23.470;2022-12-08T03:40:27;1.10;;;1.10;;
6037;SDS011;3047;42.600;23.470;2022-12-08T03:42:54;0.90;;;0.90;;
6037;SDS011;3047;42.600;23.470;2022-12-08T03:45:21;0.63;;;0.63;;
6037;SDS011;3047;42.600;23.470;2022-12-08T03:47:48;0.50;;;0.50;;
6037;SDS011;3047;42.600;23.470;2022-12-08T03:50:14;1.67;;;1.23;;
6037;SDS011;3047;42.600;23.470;2022-12-08T03:52:42;0.67;;;0.67;;
6037;SDS011;3047;42.600;23.470;2022-12-08T03:55:09;0.97;;;0.80;;
6037;SDS011;3047;42.600;23.470;2022-12-08T03:57:36;0.50;;;0.50;;
6037;SDS011;3047;42.600;23.470;2022-12-08T04:00:03;1.30;;;1.30;;
6037;SDS011;3047;42.600;23.470;2022-12-08T04:02:31;0.90;;;0.90;;
6037;SDS011;3047;42.600;23.470;2022-12-08T04:04:58;1.33;;;1.23;;
6037;SDS011;3047;42.600;23.470;2022-12-08T04:07:25;0.70;;;0.70;;
6037;SDS011;3047;42.600;23.470;2022-12-08T04:09:53;0.50;;;0.50;;
6037;SDS011;3047;42.600;23.470;2022-12-08T04:12:20;0.40;;;0.40;;
6037;SDS011;3047;42.600;23.470;2022-12-08T04:14:46;0.90;;;0.90;;
6037;SDS011;3047;42.600;23.470;2022-12-08T04:17:13;0.73;;;0.73;;
6037;SDS011;3047;42.600;23.470;2022-12-08T04:19:40;2.43;;;0.70;;
6037;SDS011;3047;42.600;23.470;2022-12-08T04:22:07;0.80;;;0.80;;
6037;SDS011;3047;42.600;23.470;2022-12-08T04:24:34;0.80;;;0.80;;
6037;SDS011;3047;42.600;23.470;2022-12-08T04:27:02;0.90;;;0.87;;
6037;SDS011;3047;42.600;23.470;2022-12-08T04:29:28;1.00;;;1.00;;
6037;SDS011;3047;42.600;23.470;2022-12-08T04:31:55;0.67;;;0.67;;
6037;SDS011;3047;42.600;23.470;2022-12-08T04:34:22;0.77;;;0.77;;
6037;SDS011;3047;42.600;23.470;2022-12-08T04:36:49;1.17;;;1.07;;
6037;SDS011;3047;42.600;23.470;2022-12-08T04:39:16;2.67;;;1.73;;
6037;SDS011;3047;42.600;23.470;2022-12-08T04:41:42;1.60;;;1.10;;
6037;SDS011;3047;42.600;23.470;2022-12-08T04:44:10;0.67;;;0.67;;
6037;SDS011;3047;42.600;23.470;2022-12-08T04:46:37;0.70;;;0.70;;
6037;SDS011;3047;42.600;23.470;2022-12-08T04:49:04;0.57;;;0.57;;
6037;SDS011;3047;42.600;23.470;2022-12-08T04:51:31;1.23;;;1.23;;
6037;SDS011;3047;42.600;23.470;2022-12-08T04:53:58;1.80;;;1.70;;
6037;SDS011;3047;42.600;23.470;2022-12-08T04:56:24;0.90;;;0.90;;
6037;SDS011;3047;42.600;23.470;2022-12-08T04:58:51;3.53;;;1.83;;
6037;SDS011;3047;42.600;23.470;2022-12-08T05:01:19;1.23;;;1.23;;
6037;SDS011;3047;42.600;23.470;2022-12-08T05:03:46;1.00;;;1.00;;
6037;SDS011;3047;42.600;23.470;2022-12-08T05:06:13;0.90;;;0.80;;
6037;SDS011;3047;42.600;23.470;2022-12-08T05:08:40;0.67;;;0.67;;
6037;SDS011;3047;42.600;23.470;2022-12-08T05:11:08;1.90;;;0.90;;
6037;SDS011;3047;42.600;23.470;2022-12-08T05:13:36;0.80;;;0.80;;
6037;SDS011;3047;42.600;23.470;2022-12-08T05:16:03;1.37;;;1.37;;
6037;SDS011;3047;42.600;23.470;2022-12-08T05:18:33;0.60;;;0.60;;
6037;SDS011;3047;42.600;23.470;2022-12-08T05:20:59;1.07;;;1.07;;
6037;SDS011;3047;42.600;23.470;2022-12-08T05:23:27;1.30;;;0.70;;
6037;SDS011;3047;42.600;23.470;2022-12-08T05:25:54;4.60;;;1.50;;
6037;SDS011;3047;42.600;23.470;2022-12-08T05:28:20;0.67;;;0.67;;
6037;SDS011;3047;42.600;23.470;2022-12-08T05:30:47;6.10;;;2.90;;
6037;SDS011;3047;42.600;23.470;2022-12-08T05:33:14;2.50;;;1.97;;
6037;SDS011;3047;42.600;23.470;2022-12-08T05:35:43;5.70;;;1.87;;
6037;SDS011;3047;42.600;23.470;2022-12-08T05:38:09;3.00;;;2.90;;
6037;SDS011;3047;42.600;23.470;2022-12-08T05:40:36;5.97;;;2.30;;
6037;SDS011;3047;42.600;23.470;2022-12-08T05:43:03;2.07;;;1.90;;
6037;SDS011;3047;42.600;23.470;2022-12-08T05:45:30;3.73;;;2.00;;
6037;SDS011;3047;42.600;23.470;2022-12-08T05:47:57;1.13;;;1.13;;
6037;SDS011;3047;42.600;23.470;2022-12-08T05:50:24;1.40;;;1.40;;
6037;SDS011;3047;42.600;23.470;2022-12-08T05:52:52;1.37;;;1.27;;
6037;SDS011;3047;42.600;23.470;2022-12-08T05:55:19;3.23;;;1.50;;
6037;SDS011;3047;42.600;23.470;2022-12-08T05:57:46;1.60;;;1.57;;
6037;SDS011;3047;42.600;23.470;2022-12-08T06:00:13;4.73;;;2.27;;
6037;SDS011;3047;42.600;23.470;2022-12-08T06:02:41;2.87;;;2.67;;
6037;SDS011;3047;42.600;23.470;2022-12-08T06:05:07;1.77;;;1.70;;
6037;SDS011;3047;42.600;23.470;2022-12-08T06:07:34;4.20;;;3.17;;
6037;SDS011;3047;42.600;23.470;2022-12-08T06:10:03;10.00;;;3.20;;
6037;SDS011;3047;42.600;23.470;2022-12-08T06:12:31;6.57;;;2.70;;
6037;SDS011;3047;42.600;23.470;2022-12-08T06:14:58;5.47;;;4.63;;
6037;SDS011;3047;42.600;23.470;2022-12-08T06:17:24;3.23;;;2.60;;
6037;SDS011;3047;42.600;23.470;2022-12-08T06:19:51;1.43;;;1.43;;
6037;SDS011;3047;42.600;23.470;2022-12-08T06:22:18;1.53;;;1.47;;
6037;SDS011;3047;42.600;23.470;2022-12-08T06:24:45;2.30;;;2.20;;
6037;SDS011;3047;42.600;23.470;2022-12-08T06:27:13;1.33;;;1.23;;
6037;SDS011;3047;42.600;23.470;2022-12-08T06:29:39;2.27;;;1.80;;
6037;SDS011;3047;42.600;23.470;2022-12-08T06:32:06;3.27;;;2.23;;
6037;SDS011;3047;42.600;23.470;2022-12-08T06:34:33;2.20;;;2.10;;
6037;SDS011;3047;42.600;23.470;2022-12-08T06:37:00;2.20;;;2.00;;
6037;SDS011;3047;42.600;23.470;2022-12-08T06:39:26;2.93;;;1.60;;
6037;SDS011;3047;42.600;23.470;2022-12-08T06:41:53;1.90;;;1.80;;
6037;SDS011;3047;42.600;23.470;2022-12-08T06:44:39;1.67;;;1.67;;
6037;SDS011;3047;42.600;23.470;2022-12-08T06:47:05;2.80;;;1.43;;
6037;SDS011;3047;42.600;23.470;2022-12-08T06:49:32;1.20;;;1.20;;
6037;SDS011;3047;42.600;23.470;2022-12-08T06:51:59;1.03;;;0.93;;
6037;SDS011;3047;42.600;23.470;2022-12-08T06:54:26;4.17;;;3.87;;
6037;SDS011;3047;42.600;23.470;2022-12-08T06:56:53;5.90;;;3.47;;
6037;SDS011;3047;42.600;23.470;2022-12-08T06:59:19;2.37;;;2.13;;
6037;SDS011;3047;42.600;23.470;2022-12-08T07:01:47;2.83;;;2.23;;
6037;SDS011;3047;42.600;23.470;2022-12-08T07:04:14;1.60;;;1.50;;
6037;SDS011;3047;42.600;23.470;2022-12-08T07:06:41;9.87;;;3.90;;
6037;SDS011;3047;42.600;23.470;2022-12-08T07:09:08;3.80;;;3.57;;
6037;SDS011;3047;42.600;23.470;2022-12-08T07:11:35;4.33;;;2.50;;
6037;SDS011;3047;42.600;23.470;2022-12-08T07:14:03;4.10;;;2.40;;
6037;SDS011;3047;42.600;23.470;2022-12-08T07:16:30;4.43;;;3.03;;
6037;SDS011;3047;42.600;23.470;2022-12-08T07:18:59;2.90;;;2.67;;
6037;SDS011;3047;42.600;23.470;2022-12-08T07:21:26;2.13;;;1.97;;
6037;SDS011;3047;42.600;23.470;2022-12-08T07:23:53;4.40;;;2.73;;
6037;SDS011;3047;42.600;23.470;2022-12-08T07:26:19;2.70;;;2.57;;
6037;SDS011;3047;42.600;23.470;2022-12-08T07:28:46;4.63;;;2.67;;
6037;SDS011;3047;42.600;23.470;2022-12-08T07:31:16;2.43;;;2.20;;
6037;SDS011;3047;42.600;23.470;2022-12-08T07:33:44;5.73;;;3.70;;
6037;SDS011;3047;42.600;23.470;2022-12-08T07:36:13;3.30;;;3.07;;
6037;SDS011;3047;42.600;23.470;2022-12-08T07:38:40;1.77;;;1.67;;
6037;SDS011;3047;42.600;23.470;2022-12-08T07:41:10;7.70;;;4.40;;
6037;SDS011;3047;42.600;23.470;2022-12-08T07:43:37;2.40;;;1.33;;
6037;SDS011;3047;42.600;23.470;2022-12-08T07:46:05;2.43;;;2.33;;
6037;SDS011;3047;42.600;23.470;2022-12-08T07:48:31;1.60;;;1.60;;
6037;SDS011;3047;42.600;23.470;2022-12-08T07:50:59;1.93;;;1.43;;
6037;SDS011;3047;42.600;23.470;2022-12-08T07:53:27;2.77;;;2.57;;
6037;SDS011;3047;42.600;23.470;2022-12-08T07:55:55;16.47;;;8.67;;
6037;SDS011;3047;42.600;23.470;2022-12-08T07:58:21;14.40;;;7.43;;
6037;SDS011;3047;42.600;23.470;2022-12-08T08:00:48;14.10;;;5.13;;
6037;SDS011;3047;42.600;23.470;2022-12-08T08:03:15;9.17;;;3.57;;
6037;SDS011;3047;42.600;23.470;2022-12-08T08:05:42;3.60;;;3.13;;
6037;SDS011;3047;42.600;23.470;2022-12-08T08:08:09;3.07;;;2.73;;
6037;SDS011;3047;42.600;23.470;2022-12-08T08:10:37;9.90;;;4.47;;
6037;SDS011;3047;42.600;23.470;2022-12-08T08:13:04;0.97;;;0.97;;
6037;SDS011;3047;42.600;23.470;2022-12-08T08:15:31;6.27;;;1.73;;
6037;SDS011;3047;42.600;23.470;2022-12-08T08:17:57;2.70;;;2.20;;
6037;SDS011;3047;42.600;23.470;2022-12-08T08:20:24;2.37;;;2.27;;
6037;SDS011;3047;42.600;23.470;2022-12-08T08:22:51;4.37;;;4.03;;
6037;SDS011;3047;42.600;23.470;2022-12-08T08:25:18;3.77;;;3.50;;
6037;SDS011;3047;42.600;23.470;2022-12-08T08:27:48;5.23;;;2.40;;
6037;SDS011;3047;42.600;23.470;2022-12-08T08:30:15;1.83;;;1.67;;
6037;SDS011;3047;42.600;23.470;2022-12-08T08:32:42;4.00;;;2.50;;
6037;SDS011;3047;42.600;23.470;2022-12-08T08:35:09;2.43;;;2.30;;
6037;SDS011;3047;42.600;23.470;2022-12-08T08:37:36;1.00;;;1.00;;
6037;SDS011;3047;42.600;23.470;2022-12-08T08:40:03;3.40;;;2.90;;
6037;SDS011;3047;42.600;23.470;2022-12-08T08:42:30;3.73;;;2.80;;
6037;SDS011;3047;42.600;23.470;2022-12-08T08:44:59;6.37;;;3.70;;
6037;SDS011;3047;42.600;23.470;2022-12-08T08:47:25;21.27;;;2.43;;
6037;SDS011;3047;42.600;23.470;2022-12-08T08:49:52;2.67;;;2.47;;
6037;SDS011;3047;42.600;23.470;2022-12-08T08:52:19;9.77;;;2.30;;
6037;SDS011;3047;42.600;23.470;2022-12-08T08:54:46;1.33;;;1.33;;
6037;SDS011;3047;42.600;23.470;2022-12-08T08:57:12;1.57;;;1.47;;
6037;SDS011;3047;42.600;23.470;2022-12-08T08:59:39;2.10;;;1.37;;
6037;SDS011;3047;42.600;23.470;2022-12-08T09:02:09;5.57;;;2.27;;
6037;SDS011;3047;42.600;23.470;2022-12-08T09:04:42;2.03;;;1.93;;
6037;SDS011;3047;42.600;23.470;2022-12-08T09:07:09;9.40;;;2.87;;
6037;SDS011;3047;42.600;23.470;2022-12-08T09:09:36;5.40;;;2.50;;
6037;SDS011;3047;42.600;23.470;2022-12-08T09:12:03;2.57;;;2.03;;
6037;SDS011;3047;42.600;23.470;2022-12-08T09:14:31;2.67;;;2.10;;
6037;SDS011;3047;42.600;23.470;2022-12-08T09:16:57;4.40;;;3.23;;
6037;SDS011;3047;42.600;23.470;2022-12-08T09:19:26;3.27;;;2.30;;
6037;SDS011;3047;42.600;23.470;2022-12-08T09:21:52;5.17;;;2.97;;
6037;SDS011;3047;42.600;23.470;2022-12-08T09:24:19;2.93;;;2.23;;
6037;SDS011;3047;42.600;23.470;2022-12-08T09:26:47;5.87;;;2.80;;
6037;SDS011;3047;42.600;23.470;2022-12-08T09:29:13;3.70;;;2.27;;
6037;SDS011;3047;42.600;23.470;2022-12-08T09:31:41;3.00;;;2.63;;
6037;SDS011;3047;42.600;23.470;2022-12-08T09:34:09;2.57;;;1.97;;
6037;SDS011;3047;42.600;23.470;2022-12-08T09:36:37;3.40;;;2.67;;
6037;SDS011;3047;42.600;23.470;2022-12-08T09:39:04;2.03;;;1.93;;
6037;SDS011;3047;42.600;23.470;2022-12-08T09:41:32;3.43;;;2.70;;
6037;SDS011;3047;42.600;23.470;2022-12-08T09:44:03;4.30;;;3.40;;
6037;SDS011;3047;42.600;23.470;2022-12-08T09:46:42;3.47;;;2.30;;
6037;SDS011;3047;42.600;23.470;2022-12-08T09:49:11;1.80;;;1.70;;
6037;SDS011;3047;42.600;23.470;2022-12-08T09:51:43;2.07;;;1.97;;
6037;SDS011;3047;42.600;23.470;2022-12-08T09:54:12;3.60;;;2.57;;
6037;SDS011;3047;42.600;23.470;2022-12-08T09:56:44;7.37;;;1.60;;
6037;SDS011;3047;42.600;23.470;2022-12-08T09:59:16;3.97;;;2.73;;
6037;SDS011;3047;42.600;23.470;2022-12-08T10:01:48;9.03;;;2.53;;
6037;SDS011;3047;42.600;23.470;2022-12-08T10:04:18;4.80;;;3.00;;
6037;SDS011;3047;42.600;23.470;2022-12-08T10:06:54;2.03;;;1.80;;
6037;SDS011;3047;42.600;23.470;2022-12-08T10:09:31;1.97;;;1.50;;
6037;SDS011;3047;42.600;23.470;2022-12-08T10:12:06;1.93;;;1.73;;
6037;SDS011;3047;42.600;23.470;2022-12-08T10:14:41;7.00;;;2.40;;
6037;SDS011;3047;42.600;23.470;2022-12-08T10:17:12;2.70;;;2.40;;
6037;SDS011;3047;42.600;23.470;2022-12-08T10:19:43;5.97;;;2.97;;
6037;SDS011;3047;42.600;23.470;2022-12-08T10:22:21;12.50;;;2.33;;
6037;SDS011;3047;42.600;23.470;2022-12-08T10:24:52;4.30;;;2.73;;
6037;SDS011;3047;42.600;23.470;2022-12-08T10:27:23;7.70;;;2.27;;
6037;SDS011;3047;42.600;23.470;2022-12-08T10:29:50;5.83;;;1.90;;
6037;SDS011;3047;42.600;23.470;2022-12-08T10:32:18;2.53;;;2.43;;
6037;SDS011;3047;42.600;23.470;2022-12-08T10:35:00;5.63;;;3.30;;
6037;SDS011;3047;42.600;23.470;2022-12-08T10:37:31;8.07;;;3.47;;
6037;SDS011;3047;42.600;23.470;2022-12-08T10:39:58;2.57;;;2.47;;
6037;SDS011;3047;42.600;23.470;2022-12-08T10:42:31;2.47;;;2.37;;
6037;SDS011;3047;42.600;23.470;2022-12-08T10:45:02;4.07;;;2.00;;
6037;SDS011;3047;42.600;23.470;2022-12-08T10:47:41;3.40;;;2.40;;
6037;SDS011;3047;42.600;23.470;2022-12-08T10:50:15;2.83;;;2.40;;
6037;SDS011;3047;42.600;23.470;2022-12-08T10:52:45;3.43;;;1.53;;
6037;SDS011;3047;42.600;23.470;2022-12-08T10:55:19;3.20;;;2.03;;
6037;SDS011;3047;42.600;23.470;2022-12-08T10:57:46;11.63;;;3.77;;
6037;SDS011;3047;42.600;23.470;2022-12-08T11:00:14;3.30;;;2.70;;
6037;SDS011;3047;42.600;23.470;2022-12-08T11:02:50;4.03;;;3.27;;
6037;SDS011;3047;42.600;23.470;2022-12-08T11:05:20;3.80;;;3.27;;
6037;SDS011;3047;42.600;23.470;2022-12-08T11:07:50;2.00;;;1.80;;
6037;SDS011;3047;42.600;23.470;2022-12-08T11:10:19;3.50;;;1.50;;
6037;SDS011;3047;42.600;23.470;2022-12-08T11:12:52;1.47;;;1.47;;
6037;SDS011;3047;42.600;23.470;2022-12-08T11:15:19;3.73;;;2.20;;
6037;SDS011;3047;42.600;23.470;2022-12-08T11:17:46;2.20;;;2.00;;
6037;SDS011;3047;42.600;23.470;2022-12-08T11:20:27;2.63;;;2.17;;
6037;SDS011;3047;42.600;23.470;2022-12-08T11:23:16;11.23;;;5.77;;
6037;SDS011;3047;42.600;23.470;2022-12-08T11:25:44;5.13;;;2.27;;
6037;SDS011;3047;42.600;23.470;2022-12-08T11:28:12;4.40;;;2.80;;
6037;SDS011;3047;42.600;23.470;2022-12-08T11:30:40;2.50;;;2.27;;
6037;SDS011;3047;42.600;23.470;2022-12-08T11:33:13;10.10;;;3.13;;
6037;SDS011;3047;42.600;23.470;2022-12-08T11:35:43;1.30;;;1.20;;
6037;SDS011;3047;42.600;23.470;2022-12-08T11:38:14;1.73;;;1.63;;
6037;SDS011;3047;42.600;23.470;2022-12-08T11:40:45;2.00;;;1.40;;
6037;SDS011;3047;42.600;23.470;2022-12-08T11:43:14;4.20;;;2.87;;
6037;SDS011;3047;42.600;23.470;2022-12-08T11:45:43;8.50;;;2.90;;
6037;SDS011;3047;42.600;23.470;2022-12-08T11:48:16;5.10;;;3.70;;
6037;SDS011;3047;42.600;23.470;2022-12-08T11:50:46;9.27;;;3.13;;
6037;SDS011;3047;42.600;23.470;2022-12-08T11:53:19;2.73;;;2.43;;
6037;SDS011;3047;42.600;23.470;2022-12-08T11:55:53;1.43;;;1.43;;
6037;SDS011;3047;42.600;23.470;2022-12-08T11:58:25;1.27;;;1.23;;
6037;SDS011;3047;42.600;23.470;2022-12-08T12:00:54;2.63;;;2.17;;
6037;SDS011;3047;42.600;23.470;2022-12-08T12:03:24;2.23;;;2.07;;
6037;SDS011;3047;42.600;23.470;2022-12-08T12:06:00;5.27;;;2.07;;
6037;SDS011;3047;42.600;23.470;2022-12-08T12:08:43;1.53;;;1.53;;
6037;SDS011;3047;42.600;23.470;2022-12-08T12:11:23;8.87;;;2.97;;
6037;SDS011;3047;42.600;23.470;2022-12-08T12:14:19;2.03;;;1.87;;
6037;SDS011;3047;42.600;23.470;2022-12-08T12:16:59;6.00;;;3.23;;
6037;SDS011;3047;42.600;23.470;2022-12-08T12:19:28;2.23;;;1.90;;
6037;SDS011;3047;42.600;23.470;2022-12-08T12:22:04;5.77;;;3.23;;
6037;SDS011;3047;42.600;23.470;2022-12-08T12:24:41;2.57;;;2.40;;
6037;SDS011;3047;42.600;23.470;2022-12-08T12:27:19;2.10;;;2.00;;
6037;SDS011;3047;42.600;23.470;2022-12-08T12:29:52;2.93;;;2.37;;
6037;SDS011;3047;42.600;23.470;2022-12-08T12:32:23;1.87;;;1.77;;
6037;SDS011;3047;42.600;23.470;2022-12-08T12:34:51;3.73;;;2.07;;
6037;SDS011;3047;42.600;23.470;2022-12-08T12:37:22;2.40;;;2.30;;
6037;SDS011;3047;42.600;23.470;2022-12-08T12:39:54;3.47;;;1.57;;
6037;SDS011;3047;42.600;23.470;2022-12-08T12:42:33;2.10;;;1.87;;
6037;SDS011;3047;42.600;23.470;2022-12-08T12:47:52;2.00;;;1.57;;
6037;SDS011;3047;42.600;23.470;2022-12-08T12:50:40;1.47;;;1.27;;
6037;SDS011;3047;42.600;23.470;2022-12-08T12:56:13;2.57;;;2.27;;
6037;SDS011;3047;42.600;23.470;2022-12-08T13:02:19;1.17;;;1.17;;
6037;SDS011;3047;42.600;23.470;2022-12-08T13:04:53;7.27;;;2.20;;
6037;SDS011;3047;42.600;23.470;2022-12-08T13:07:24;4.13;;;2.60;;
6037;SDS011;3047;42.600;23.470;2022-12-08T13:09:54;1.90;;;1.77;;
6037;SDS011;3047;42.600;23.470;2022-12-08T13:12:25;3.07;;;1.47;;
6037;SDS011;3047;42.600;23.470;2022-12-08T13:14:52;6.33;;;1.97;;
6037;SDS011;3047;42.600;23.470;2022-12-08T13:17:28;5.13;;;3.50;;
6037;SDS011;3047;42.600;23.470;2022-12-08T13:19:57;22.33;;;2.37;;
6037;SDS011;3047;42.600;23.470;2022-12-08T13:25:47;2.33;;;2.13;;
6037;SDS011;3047;42.600;23.470;2022-12-08T13:28:28;1.77;;;1.67;;
6037;SDS011;3047;42.600;23.470;2022-12-08T13:30:56;1.73;;;1.70;;
6037;SDS011;3047;42.600;23.470;2022-12-08T13:33:28;3.17;;;1.67;;
6037;SDS011;3047;42.600;23.470;2022-12-08T13:36:02;4.03;;;2.57;;
6037;SDS011;3047;42.600;23.470;2022-12-08T13:38:36;4.00;;;2.70;;
6037;SDS011;3047;42.600;23.470;2022-12-08T13:41:06;2.67;;;2.57;;
6037;SDS011;3047;42.600;23.470;2022-12-08T13:43:41;2.03;;;1.83;;
6037;SDS011;3047;42.600;23.470;2022-12-08T13:46:12;3.77;;;3.47;;
6037;SDS011;3047;42.600;23.470;2022-12-08T13:48:46;2.70;;;1.80;;
6037;SDS011;3047;42.600;23.470;2022-12-08T13:51:17;3.07;;;2.67;;
6037;SDS011;3047;42.600;23.470;2022-12-08T13:53:50;3.20;;;2.90;;
6037;SDS011;3047;42.600;23.470;2022-12-08T13:56:23;3.07;;;2.17;;
6037;SDS011;3047;42.600;23.470;2022-12-08T13:58:55;10.73;;;3.23;;
6037;SDS011;3047;42.600;23.470;2022-12-08T14:01:32;2.23;;;1.87;;
6037;SDS011;3047;42.600;23.470;2022-12-08T14:04:11;1.67;;;1.53;;
6037;SDS011;3047;42.600;23.470;2022-12-08T14:06:41;1.47;;;1.47;;
6037;SDS011;3047;42.600;23.470;2022-12-08T14:09:10;4.33;;;1.40;;
6037;SDS011;3047;42.600;23.470;2022-12-08T14:11:42;2.27;;;1.33;;
6037;SDS011;3047;42.600;23.470;2022-12-08T14:14:14;4.23;;;1.10;;
6037;SDS011;3047;42.600;23.470;2022-12-08T14:16:47;1.57;;;1.57;;
6037;SDS011;3047;42.600;23.470;2022-12-08T14:19:18;0.87;;;0.87;;
6037;SDS011;3047;42.600;23.470;2022-12-08T14:21:49;1.27;;;1.27;;
6037;SDS011;3047;42.600;23.470;2022-12-08T14:24:20;2.20;;;1.97;;
6037;SDS011;3047;42.600;23.470;2022-12-08T14:26:48;2.33;;;2.13;;
6037;SDS011;3047;42.600;23.470;2022-12-08T14:29:24;2.53;;;2.43;;
6037;SDS011;3047;42.600;23.470;2022-12-08T14:32:01;1.97;;;0.97;;
6037;SDS011;3047;42.600;23.470;2022-12-08T14:34:28;2.30;;;2.23;;
6037;SDS011;3047;42.600;23.470;2022-12-08T14:36:57;0.60;;;0.60;;
6037;SDS011;3047;42.600;23.470;2022-12-08T14:39:24;1.00;;;1.00;;
6037;SDS011;3047;42.600;23.470;2022-12-08T14:41:57;1.40;;;1.40;;
6037;SDS011;3047;42.600;23.470;2022-12-08T14:44:29;0.60;;;0.60;;
6037;SDS011;3047;42.600;23.470;2022-12-08T14:47:04;0.70;;;0.70;;
6037;SDS011;3047;42.600;23.470;2022-12-08T14:49:33;0.87;;;0.87;;
6037;SDS011;3047;42.600;23.470;2022-12-08T14:52:01;0.90;;;0.90;;
6037;SDS011;3047;42.600;23.470;2022-12-08T14:54:33;0.97;;;0.97;;
6037;SDS011;3047;42.600;23.470;2022-12-08T14:57:00;1.43;;;1.37;;
6037;SDS011;3047;42.600;23.470;2022-12-08T14:59:30;1.00;;;1.00;;
6037;SDS011;3047;42.600;23.470;2022-12-08T15:02:09;3.63;;;2.17;;
6037;SDS011;3047;42.600;23.470;2022-12-08T15:04:46;1.03;;;1.03;;
6037;SDS011;3047;42.600;23.470;2022-12-08T15:07:15;1.97;;;1.87;;
6037;SDS011;3047;42.600;23.470;2022-12-08T15:09:43;1.07;;;1.07;;
6037;SDS011;3047;42.600;23.470;2022-12-08T15:12:18;0.97;;;0.97;;
6037;SDS011;3047;42.600;23.470;2022-12-08T15:14:54;1.50;;;1.40;;
6037;SDS011;3047;42.600;23.470;2022-12-08T15:17:26;1.63;;;1.50;;
6037;SDS011;3047;42.600;23.470;2022-12-08T15:19:55;0.80;;;0.80;;
6037;SDS011;3047;42.600;23.470;2022-12-08T15:22:23;1.00;;;1.00;;
6037;SDS011;3047;42.600;23.470;2022-12-08T15:24:50;1.03;;;1.03;;
6037;SDS011;3047;42.600;23.470;2022-12-08T15:27:17;1.83;;;1.73;;
6037;SDS011;3047;42.600;23.470;2022-12-08T15:29:46;4.30;;;2.73;;